Don Miguel Hidalgo Y Costilla International Airport
MMGL : now visible

Airfield :











YOU CAN JOIN US ON...

 
LOGIN :

Register | Disclaimer

   EN    FR    IT 

 









Legend :    VFR   Marginal VFR   IFR   Intensive IFR   Very Intensive IFR
Visi :
Ceiling :
>= 8 km
>= 3000ft
5 to 8 km
1000 to 3000 ft
1500m to 5 km
500 to 1000 ft
800 to 1500m
200 to 500 ft
< 800m
< 200 ft
Symbols :   Thunderstorms  Fog  Heavy snow  Heavy precipitations  Wind > 20 kt






- Airport Elevation : 5016 ft
- IATA code : GDL


MMGL - Don Miguel Hidalgo Y Costilla International

CURRENT METAR :
  • 191646Z 15008KT 8SM BKN020 BKN300 22/14 A3018 RMK 8/101 HZY

EXPIRED METARs :
  • 191545Z 12009KT 6SM FEW008 SCT015 BKN300 20/14 A3019 RMK 8/508 HZY/CU
  • 191446Z 00000KT 6SM FEW008 BKN015 BKN300 19/15 A3019 RMK SLP127 52014 967 8/508 HZY

TAF TAF MMGL
Valid from the 19 at 12:00 until the 20 at 18:00 UTC


191045Z 1912/2018 16005KT 5SM HZ SCT008 BKN020 OVC100 TX25/1921Z TN16/1912Z
TEMPO 1912/1916 2SM BR BKN007
FM191600 00000KT 4SM HZ SCT015 BKN100
FM191800 25010KT P6SM SCT020 BKN100 BKN300
TEMPO 1922/2002 6SM TSRA BKN020CB
FM200200 18010KT 6SM -RA BKN020CB OVC100
TEMPO 2002/2006 5SM TSRA
FM200600 00000KT 6SM HZ SCT020 BKN100 BKN300
TEMPO 2006/2010 6SM -RA
FM201600 00000KT 5SM HZ SCT015 BKN080
MMFR FIR / North America



MET'MAP, your aeronautical weather chart ! - Copyright ORBIFLY December 2007 - Disclaimer

ORBIFLY MET'MAP TEAM :

Programming & Development : Alexandra Zaïnal
Original concept : Baudouin d'Aumeries
Technical & hardware support : Manuel Goepfert
Assistance : Marc-Olivier Méhu




SOURCES & CREDITS :

   NOAA       Earth
Advisory